Time;durP1;ratioP1;P1;durP2;ratioP2;P2;SDS_P1;SDS_P2;PMS_P1;PMS_P2;Temp;Humidity;BMP_temperature;BMP_pressure;BME280_temperature;BME280_humidity;BME280_pressure;Samples;Min_cycle;Max_cycle;Signal;HPM_P1;HPM_P2
2023/05/07 00:02:20;;;;;;;4.13;1.95;;;15.50;99.90;;;;;;5008418;28;20597;-85
2023/05/07 00:04:47;;;;;;;3.35;2.55;;;15.50;99.90;;;;;;5003226;28;20081;-84
2023/05/07 00:07:14;;;;;;;5.70;2.40;;;15.50;99.90;;;;;;5019364;28;20057;-83
2023/05/07 00:09:41;;;;;;;5.43;1.60;;;15.50;99.90;;;;;;5018253;28;20058;-84
2023/05/07 00:12:08;;;;;;;5.72;1.75;;;15.50;99.90;;;;;;5009194;28;20498;-84
2023/05/07 00:14:35;;;;;;;3.08;1.75;;;15.40;99.90;;;;;;5009269;28;20417;-86
2023/05/07 00:17:02;;;;;;;5.05;1.80;;;15.50;99.90;;;;;;5023307;28;20085;-86
2023/05/07 00:19:29;;;;;;;2.28;1.60;;;15.40;99.90;;;;;;4999184;28;20060;-82
2023/05/07 00:21:56;;;;;;;2.15;1.60;;;15.40;99.90;;;;;;5031650;28;20054;-83
2023/05/07 00:24:23;;;;;;;5.05;1.75;;;15.40;99.90;;;;;;5014240;28;20065;-84
2023/05/07 00:26:50;;;;;;;2.95;1.40;;;15.30;99.90;;;;;;5008872;28;20047;-83
2023/05/07 00:29:17;;;;;;;5.75;1.77;;;15.30;99.90;;;;;;5007150;28;20454;-84
2023/05/07 00:31:44;;;;;;;4.53;1.70;;;15.30;99.90;;;;;;5004530;28;20046;-84
2023/05/07 00:34:11;;;;;;;5.88;1.80;;;15.30;99.90;;;;;;5005155;28;20050;-85
2023/05/07 00:36:38;;;;;;;3.08;1.70;;;15.30;99.90;;;;;;5013307;28;20049;-85
2023/05/07 00:39:04;;;;;;;3.08;1.80;;;15.30;99.90;;;;;;5015764;28;20068;-84
2023/05/07 00:41:31;;;;;;;4.70;1.50;;;15.30;99.90;;;;;;5011486;28;20084;-84
2023/05/07 00:43:58;;;;;;;2.00;1.60;;;15.30;99.90;;;;;;5026288;28;20077;-85
2023/05/07 00:46:25;;;;;;;4.57;1.63;;;15.30;99.90;;;;;;5006936;28;20057;-83
2023/05/07 00:48:54;;;;;;;6.82;1.60;;;15.20;99.90;;;;;;5005135;28;20521;-84
2023/05/07 00:51:20;;;;;;;5.95;1.70;;;15.20;99.90;;;;;;5010468;28;20109;-84
2023/05/07 00:53:47;;;;;;;3.88;1.88;;;15.20;99.90;;;;;;5012007;28;20086;-84
2023/05/07 00:56:14;;;;;;;5.10;1.80;;;15.10;99.90;;;;;;5017163;28;20054;-85
2023/05/07 00:58:41;;;;;;;4.13;1.70;;;15.10;99.90;;;;;;5018449;28;20046;-85
2023/05/07 01:01:08;;;;;;;4.75;1.55;;;15.10;99.90;;;;;;5028253;28;20059;-85
2023/05/07 01:03:36;;;;;;;4.35;1.55;;;15.10;99.90;;;;;;5000418;28;20141;-84
2023/05/07 01:06:04;;;;;;;3.78;1.55;;;15.10;99.90;;;;;;5027176;28;20097;-84
2023/05/07 01:08:34;;;;;;;4.20;1.80;;;15.00;99.90;;;;;;5010520;28;20055;-84
2023/05/07 01:11:02;;;;;;;6.78;1.92;;;15.00;99.90;;;;;;5004450;28;20050;-85
2023/05/07 01:13:29;;;;;;;3.05;1.73;;;15.00;99.90;;;;;;5007808;28;20051;-83
2023/05/07 01:15:56;;;;;;;3.72;1.90;;;15.00;99.90;;;;;;5004161;28;20062;-84
2023/05/07 01:18:23;;;;;;;4.90;1.90;;;15.00;99.90;;;;;;5004754;28;20046;-85
2023/05/07 01:20:49;;;;;;;3.35;1.70;;;14.90;99.90;;;;;;5008462;28;20045;-85
2023/05/07 01:23:17;;;;;;;5.55;2.28;;;14.90;99.90;;;;;;5016993;28;20072;-85
2023/05/07 01:25:51;;;;;;;3.90;1.85;;;14.90;99.90;;;;;;5013709;28;20073;-85
2023/05/07 01:28:18;;;;;;;4.45;1.85;;;14.80;99.90;;;;;;5010541;28;20046;-84
2023/05/07 01:30:51;;;;;;;3.17;1.73;;;14.80;99.90;;;;;;5004332;28;20082;-85
2023/05/07 01:33:24;;;;;;;7.28;1.95;;;14.80;99.90;;;;;;5003587;28;20054;-84
2023/05/07 01:35:53;;;;;;;2.75;1.77;;;14.80;99.90;;;;;;5011665;28;20093;-84
2023/05/07 01:38:22;;;;;;;3.33;1.90;;;14.80;99.90;;;;;;5016418;28;20444;-86
2023/05/07 01:40:49;;;;;;;3.50;1.65;;;14.70;99.90;;;;;;5012850;28;20050;-85
2023/05/07 01:43:16;;;;;;;4.25;1.67;;;14.70;99.90;;;;;;5002862;28;20057;-85
2023/05/07 01:45:44;;;;;;;6.78;1.85;;;14.70;99.90;;;;;;5004460;28;20046;-85
2023/05/07 01:48:12;;;;;;;3.90;2.10;;;14.60;99.90;;;;;;4998272;28;20513;-85
2023/05/07 01:50:39;;;;;;;7.20;1.70;;;14.60;99.90;;;;;;5007202;28;20450;-85
2023/05/07 01:53:06;;;;;;;2.47;1.83;;;14.60;99.90;;;;;;5028866;28;20076;-86
2023/05/07 01:55:33;;;;;;;3.05;1.50;;;14.50;99.90;;;;;;5011288;28;20053;-84
2023/05/07 01:58:00;;;;;;;2.55;1.70;;;14.50;99.90;;;;;;5020265;28;20049;-85
2023/05/07 02:00:27;;;;;;;5.40;2.45;;;14.50;99.90;;;;;;4994211;28;20093;-84
2023/05/07 02:02:53;;;;;;;4.13;2.20;;;14.50;99.90;;;;;;5001071;28;20054;-84
2023/05/07 02:05:20;;;;;;;2.63;1.63;;;14.40;99.90;;;;;;5007266;28;20065;-85
2023/05/07 02:07:47;;;;;;;5.28;1.80;;;14.40;99.90;;;;;;5009481;28;20038;-84
2023/05/07 02:10:14;;;;;;;8.10;2.08;;;14.40;99.90;;;;;;5011401;28;20125;-84
2023/05/07 02:12:42;;;;;;;3.28;2.10;;;14.40;99.90;;;;;;5002866;28;20122;-86
2023/05/07 02:15:10;;;;;;;3.55;2.15;;;14.40;99.90;;;;;;5005769;28;20137;-85
2023/05/07 02:17:57;;;;;;;5.47;2.03;;;14.40;99.90;;;;;;4998667;28;20054;-84
2023/05/07 02:20:24;;;;;;;4.78;2.00;;;14.30;99.90;;;;;;5008467;28;20050;-84
2023/05/07 02:22:50;;;;;;;6.72;2.00;;;14.30;99.90;;;;;;5012271;28;20167;-84
2023/05/07 02:25:17;;;;;;;4.95;1.98;;;14.30;99.90;;;;;;5010026;28;20126;-85
2023/05/07 02:27:44;;;;;;;4.07;1.85;;;14.20;99.90;;;;;;5005681;28;20061;-85
2023/05/07 02:30:11;;;;;;;6.95;2.08;;;14.20;99.90;;;;;;5005331;28;20050;-84
2023/05/07 02:32:38;;;;;;;2.75;2.10;;;14.10;99.90;;;;;;4999212;28;20096;-84
2023/05/07 02:35:05;;;;;;;3.13;1.88;;;14.10;99.90;;;;;;5005822;28;20065;-85
2023/05/07 02:37:32;;;;;;;4.90;2.13;;;14.10;99.90;;;;;;5008117;28;20129;-84
2023/05/07 02:39:58;;;;;;;4.80;1.90;;;14.10;99.90;;;;;;5011815;28;20037;-84
2023/05/07 02:42:25;;;;;;;6.63;2.00;;;14.10;99.90;;;;;;5009471;28;20077;-84
2023/05/07 02:44:52;;;;;;;4.95;1.58;;;14.10;99.90;;;;;;5009856;28;20065;-84
2023/05/07 02:47:18;;;;;;;2.63;1.90;;;14.10;99.90;;;;;;5005458;28;20210;-84
2023/05/07 02:49:45;;;;;;;4.32;2.10;;;14.10;99.90;;;;;;5007794;28;20050;-85
2023/05/07 02:52:12;;;;;;;3.72;2.00;;;14.10;99.90;;;;;;5031975;28;20482;-84
2023/05/07 02:54:39;;;;;;;2.30;1.92;;;14.10;99.90;;;;;;5015299;28;20056;-84
2023/05/07 02:57:06;;;;;;;7.82;2.47;;;14.00;99.90;;;;;;5010708;28;20046;-84
2023/05/07 02:59:32;;;;;;;4.55;2.03;;;14.00;99.90;;;;;;5005457;28;20050;-86
2023/05/07 03:01:59;;;;;;;4.43;2.03;;;14.00;99.90;;;;;;5002167;28;20128;-85
2023/05/07 03:04:26;;;;;;;6.22;1.90;;;14.00;99.90;;;;;;5002256;28;20060;-84
2023/05/07 03:06:53;;;;;;;2.55;2.03;;;14.00;99.90;;;;;;5009447;28;20050;-85
2023/05/07 03:09:19;;;;;;;6.45;2.00;;;13.90;99.90;;;;;;5012606;28;20050;-84
2023/05/07 03:11:46;;;;;;;2.30;2.00;;;13.90;99.90;;;;;;5005711;28;20050;-84
2023/05/07 03:14:13;;;;;;;2.53;1.90;;;14.00;99.90;;;;;;5005583;28;20056;-84
2023/05/07 03:16:40;;;;;;;4.53;2.10;;;13.90;99.90;;;;;;5003439;28;20053;-84
2023/05/07 03:19:06;;;;;;;4.68;1.65;;;13.90;99.90;;;;;;4998238;28;20670;-84
2023/05/07 03:21:34;;;;;;;5.25;1.80;;;13.90;99.90;;;;;;5013915;28;20066;-86
2023/05/07 03:24:01;;;;;;;4.20;1.75;;;13.90;99.90;;;;;;5012266;28;20511;-84
2023/05/07 03:26:27;;;;;;;2.85;1.90;;;13.90;99.90;;;;;;5008105;28;20042;-85
2023/05/07 03:28:55;;;;;;;4.53;2.10;;;13.80;99.90;;;;;;5004167;28;20043;-84
2023/05/07 03:31:22;;;;;;;4.45;2.00;;;13.80;99.90;;;;;;5002104;28;20051;-86
2023/05/07 03:33:56;;;;;;;4.65;2.10;;;13.80;99.90;;;;;;5007939;28;20121;-83
2023/05/07 03:36:23;;;;;;;3.60;1.70;;;13.80;99.90;;;;;;5030749;28;20049;-83
2023/05/07 03:38:50;;;;;;;1.98;1.75;;;13.80;99.90;;;;;;5014049;28;20506;-86
2023/05/07 03:41:17;;;;;;;3.58;2.33;;;13.80;99.90;;;;;;5007911;28;20073;-84
2023/05/07 03:43:44;;;;;;;3.20;2.00;;;13.80;99.90;;;;;;5006008;28;20306;-84
2023/05/07 03:46:10;;;;;;;3.92;2.13;;;13.70;99.90;;;;;;5019816;28;20474;-84
2023/05/07 03:48:37;;;;;;;6.38;2.33;;;13.70;99.90;;;;;;5001506;28;20050;-86
2023/05/07 03:51:04;;;;;;;6.20;2.10;;;13.70;99.90;;;;;;5027859;28;20054;-84
2023/05/07 03:53:31;;;;;;;2.22;1.52;;;13.70;99.90;;;;;;5013283;28;20074;-84
2023/05/07 03:55:58;;;;;;;6.50;1.90;;;13.70;99.90;;;;;;5007232;28;20074;-85
2023/05/07 03:58:25;;;;;;;5.32;2.28;;;13.70;99.90;;;;;;5007608;28;20406;-85
2023/05/07 04:00:51;;;;;;;3.45;1.88;;;13.70;99.90;;;;;;5003041;28;20055;-85
2023/05/07 04:03:18;;;;;;;4.75;2.47;;;13.70;99.90;;;;;;5004050;28;20042;-84
2023/05/07 04:05:45;;;;;;;2.50;2.15;;;13.70;99.90;;;;;;5011226;28;20402;-85
2023/05/07 04:08:12;;;;;;;8.52;2.97;;;13.70;99.90;;;;;;5030529;28;20129;-85
2023/05/07 04:10:38;;;;;;;7.63;2.47;;;13.70;99.90;;;;;;5006591;28;20105;-85
2023/05/07 04:13:05;;;;;;;8.70;2.08;;;13.70;99.90;;;;;;5036611;28;20046;-85
2023/05/07 04:15:32;;;;;;;7.80;2.20;;;13.70;99.90;;;;;;5017756;28;20058;-85
2023/05/07 04:17:59;;;;;;;4.40;2.30;;;13.70;99.90;;;;;;5006358;28;20137;-82
2023/05/07 04:20:26;;;;;;;2.75;1.60;;;13.70;99.90;;;;;;5025829;28;20049;-84
2023/05/07 04:22:52;;;;;;;4.25;2.10;;;13.70;99.90;;;;;;5009543;28;20121;-83
2023/05/07 04:25:19;;;;;;;3.15;2.08;;;13.70;99.90;;;;;;5005104;28;20082;-84
2023/05/07 04:27:46;;;;;;;4.00;2.30;;;13.70;99.90;;;;;;5000500;28;20046;-84
2023/05/07 04:30:13;;;;;;;5.72;2.10;;;13.70;99.90;;;;;;5019796;28;20068;-84
2023/05/07 04:32:40;;;;;;;3.60;2.05;;;13.70;99.90;;;;;;5001621;28;20521;-84
2023/05/07 04:35:07;;;;;;;6.38;2.67;;;13.70;99.90;;;;;;5025552;28;20122;-84
2023/05/07 04:37:34;;;;;;;3.28;2.22;;;13.70;99.90;;;;;;5012408;28;20046;-84
2023/05/07 04:40:01;;;;;;;2.75;1.85;;;13.80;99.90;;;;;;5007882;28;20465;-84
2023/05/07 04:42:28;;;;;;;4.72;1.85;;;13.80;99.90;;;;;;5004201;28;20109;-84
2023/05/07 04:44:55;;;;;;;4.85;1.92;;;13.90;99.90;;;;;;5000928;28;20065;-82
2023/05/07 04:47:21;;;;;;;3.83;2.28;;;13.90;99.90;;;;;;4998476;28;20414;-84
2023/05/07 04:49:48;;;;;;;2.45;2.15;;;14.00;99.90;;;;;;5008857;28;20129;-84
2023/05/07 04:52:15;;;;;;;3.92;2.10;;;14.00;99.90;;;;;;5027261;28;20045;-85
2023/05/07 04:54:42;;;;;;;3.95;2.03;;;14.10;99.90;;;;;;5007334;28;20042;-83
2023/05/07 04:57:09;;;;;;;4.03;2.20;;;14.20;99.90;;;;;;5003219;28;20034;-84
2023/05/07 04:59:35;;;;;;;7.22;2.70;;;14.40;99.90;;;;;;4997956;28;20133;-85
2023/05/07 05:02:04;;;;;;;8.80;2.67;;;14.50;99.90;;;;;;4996978;28;20046;-84
2023/05/07 05:04:30;;;;;;;3.78;2.60;;;14.60;99.90;;;;;;5002624;28;20575;-85
2023/05/07 05:06:58;;;;;;;3.47;2.80;;;14.70;99.90;;;;;;5007080;28;20088;-85
2023/05/07 05:09:24;;;;;;;7.07;2.70;;;14.80;99.90;;;;;;5005272;28;20138;-84
2023/05/07 05:11:51;;;;;;;2.83;2.60;;;14.90;99.90;;;;;;4998561;28;20061;-85
2023/05/07 05:14:18;;;;;;;5.05;2.65;;;15.00;99.90;;;;;;4998937;28;20060;-84
2023/05/07 05:16:44;;;;;;;5.22;2.63;;;15.10;99.90;;;;;;4996348;28;20499;-85
2023/05/07 05:19:11;;;;;;;5.45;2.60;;;15.10;99.90;;;;;;5004093;28;20084;-84
2023/05/07 05:21:38;;;;;;;4.63;2.78;;;15.20;99.90;;;;;;5008030;28;20076;-85
2023/05/07 05:24:05;;;;;;;3.55;2.50;;;15.20;99.90;;;;;;5009823;28;20417;-84
2023/05/07 05:26:32;;;;;;;13.25;3.88;;;15.20;99.90;;;;;;5004091;28;20048;-84
2023/05/07 05:28:58;;;;;;;29.73;18.88;;;15.30;99.90;;;;;;5004517;28;20058;-84
2023/05/07 05:31:25;;;;;;;47.53;29.67;;;15.30;99.90;;;;;;4995634;28;20047;-84
2023/05/07 05:33:52;;;;;;;30.38;18.95;;;15.40;99.90;;;;;;5010890;28;20054;-86
2023/05/07 05:36:19;;;;;;;9.13;6.43;;;15.40;99.90;;;;;;5025115;28;20081;-83
2023/05/07 05:38:46;;;;;;;4.30;3.72;;;15.50;99.90;;;;;;5008439;28;20113;-85
2023/05/07 05:41:12;;;;;;;3.95;2.38;;;15.50;99.90;;;;;;5003942;28;20108;-83
2023/05/07 05:43:39;;;;;;;6.78;2.75;;;15.60;99.90;;;;;;5000400;28;20085;-83
2023/05/07 05:46:06;;;;;;;5.78;4.05;;;15.60;99.90;;;;;;4998401;28;20042;-83
2023/05/07 05:48:33;;;;;;;9.70;5.60;;;15.70;99.90;;;;;;5003607;28;20042;-84
2023/05/07 05:51:00;;;;;;;7.90;3.90;;;15.80;99.90;;;;;;5006481;28;20052;-85
2023/05/07 05:53:26;;;;;;;5.35;3.97;;;15.90;99.90;;;;;;5008664;28;20046;-84
2023/05/07 05:55:53;;;;;;;7.07;4.00;;;15.90;99.90;;;;;;5001325;28;20066;-84
2023/05/07 05:58:20;;;;;;;7.43;3.88;;;16.00;99.90;;;;;;5001146;28;20077;-85
2023/05/07 06:00:48;;;;;;;7.13;4.53;;;16.10;99.90;;;;;;4998731;28;20051;-84
2023/05/07 06:03:14;;;;;;;7.93;4.55;;;16.20;99.90;;;;;;5012691;28;20050;-84
2023/05/07 06:05:41;;;;;;;4.28;3.03;;;16.30;99.90;;;;;;5006121;28;20046;-85
2023/05/07 06:08:08;;;;;;;4.68;2.88;;;16.40;99.90;;;;;;5009521;28;20628;-85
2023/05/07 06:10:37;;;;;;;8.90;3.60;;;16.40;99.90;;;;;;5003516;28;20105;-83
2023/05/07 06:13:03;;;;;;;8.15;2.80;;;16.60;99.90;;;;;;4999281;28;20046;-82
2023/05/07 06:15:30;;;;;;;5.05;2.40;;;16.60;99.90;;;;;;4997945;28;20064;-84
2023/05/07 06:17:57;;;;;;;4.15;2.70;;;16.70;99.90;;;;;;5007083;28;20072;-84
2023/05/07 06:20:24;;;;;;;5.03;2.95;;;16.70;99.90;;;;;;5024761;28;20046;-84
2023/05/07 06:22:50;;;;;;;5.22;3.03;;;16.80;99.90;;;;;;5014780;28;20089;-85
2023/05/07 06:25:17;;;;;;;5.57;3.60;;;16.80;99.90;;;;;;5010175;28;20055;-84
2023/05/07 06:27:44;;;;;;;6.30;3.38;;;16.90;99.90;;;;;;5001804;28;20046;-84
2023/05/07 06:30:11;;;;;;;6.07;3.58;;;16.90;99.90;;;;;;5000858;28;20046;-85
2023/05/07 06:32:40;;;;;;;4.57;3.55;;;16.90;99.90;;;;;;5002988;28;20062;-83
2023/05/07 06:35:08;;;;;;;4.63;2.90;;;16.80;99.90;;;;;;4998930;28;20077;-85
2023/05/07 06:37:34;;;;;;;4.72;2.92;;;16.80;99.90;;;;;;5005925;28;20056;-84
2023/05/07 06:40:01;;;;;;;5.35;2.70;;;16.70;99.90;;;;;;5005956;28;20054;-85
2023/05/07 06:42:28;;;;;;;7.22;3.40;;;16.70;99.90;;;;;;5004875;28;20129;-83
2023/05/07 06:44:55;;;;;;;4.70;2.90;;;16.60;99.90;;;;;;5001507;28;20055;-84
2023/05/07 06:47:21;;;;;;;3.47;2.60;;;16.50;99.90;;;;;;4998854;28;20105;-84
2023/05/07 06:49:48;;;;;;;8.80;3.25;;;16.50;99.90;;;;;;5011133;28;20581;-83
2023/05/07 06:52:15;;;;;;;5.30;3.28;;;16.50;99.90;;;;;;5026376;28;20054;-83
2023/05/07 06:54:42;;;;;;;7.45;3.20;;;16.50;99.90;;;;;;5008578;28;20052;-84
2023/05/07 06:57:08;;;;;;;7.00;2.92;;;16.50;99.90;;;;;;5005572;28;20531;-84
2023/05/07 06:59:35;;;;;;;3.15;2.83;;;16.50;99.90;;;;;;5001837;28;20047;-84
2023/05/07 07:02:02;;;;;;;6.10;3.65;;;16.50;99.90;;;;;;5000912;28;20050;-84
2023/05/07 07:04:29;;;;;;;6.32;3.10;;;16.60;99.90;;;;;;5024346;28;20092;-82
2023/05/07 07:06:56;;;;;;;3.95;2.70;;;16.60;99.90;;;;;;5011522;28;20050;-84
2023/05/07 07:09:23;;;;;;;4.05;2.63;;;16.60;99.90;;;;;;5005223;28;20106;-85
2023/05/07 07:11:50;;;;;;;5.55;2.47;;;16.60;99.90;;;;;;5007167;28;20495;-84
2023/05/07 07:14:16;;;;;;;3.63;2.65;;;16.70;99.90;;;;;;5024161;28;20133;-84
2023/05/07 07:16:43;;;;;;;3.58;2.67;;;16.80;99.90;;;;;;4998821;28;20480;-84
2023/05/07 07:19:10;;;;;;;5.07;2.40;;;16.80;99.90;;;;;;5009180;28;20141;-84
2023/05/07 07:21:36;;;;;;;3.97;2.70;;;16.90;99.90;;;;;;5011931;28;20050;-85
2023/05/07 07:24:04;;;;;;;4.05;2.22;;;17.00;99.90;;;;;;5007578;28;20414;-84
2023/05/07 07:26:31;;;;;;;5.13;3.15;;;17.00;99.90;;;;;;5006500;28;20042;-84
2023/05/07 07:28:57;;;;;;;4.57;2.58;;;17.10;99.90;;;;;;5009003;28;20133;-85
2023/05/07 07:31:24;;;;;;;5.22;2.33;;;17.20;99.90;;;;;;5025014;28;20027;-84
2023/05/07 07:33:51;;;;;;;5.25;2.45;;;17.20;99.90;;;;;;5015420;28;20577;-85
2023/05/07 07:36:18;;;;;;;4.63;2.63;;;17.30;99.90;;;;;;5011266;28;20034;-83
2023/05/07 07:38:45;;;;;;;4.53;2.20;;;17.40;99.90;;;;;;5008115;28;20052;-84
2023/05/07 07:41:12;;;;;;;3.78;2.47;;;17.50;99.90;;;;;;4997992;28;20141;-85
2023/05/07 07:43:39;;;;;;;3.72;2.13;;;17.50;99.90;;;;;;4994710;28;20125;-83
2023/05/07 07:46:05;;;;;;;4.68;2.15;;;17.60;99.90;;;;;;4994117;28;20049;-85
2023/05/07 07:48:32;;;;;;;3.20;2.33;;;17.70;99.90;;;;;;5002059;28;20054;-85
2023/05/07 07:50:59;;;;;;;4.15;2.30;;;17.80;99.90;;;;;;5013949;28;20042;-84
2023/05/07 07:53:26;;;;;;;5.38;2.50;;;17.80;99.90;;;;;;4994108;28;20037;-84
2023/05/07 07:55:52;;;;;;;2.80;2.08;;;17.90;99.90;;;;;;5000756;28;20058;-83
2023/05/07 07:58:24;;;;;;;3.95;2.15;;;17.90;99.90;;;;;;4997560;28;20053;-84
2023/05/07 08:00:51;;;;;;;3.80;2.28;;;18.00;99.90;;;;;;4998459;28;20141;-84
2023/05/07 08:03:19;;;;;;;3.67;2.50;;;18.10;99.90;;;;;;5002953;28;20060;-84
2023/05/07 08:05:46;;;;;;;4.75;2.25;;;18.10;99.90;;;;;;5003705;28;20596;-86
2023/05/07 08:08:13;;;;;;;3.13;2.13;;;18.10;99.90;;;;;;5004758;28;20034;-85
2023/05/07 08:10:39;;;;;;;6.00;2.72;;;18.10;99.90;;;;;;4997793;28;20054;-84
2023/05/07 08:13:06;;;;;;;3.22;2.45;;;18.20;99.90;;;;;;5003084;28;20074;-85
2023/05/07 08:15:33;;;;;;;3.28;2.00;;;18.30;99.90;;;;;;4995245;28;20055;-85
2023/05/07 08:18:01;;;;;;;4.55;2.30;;;18.30;99.90;;;;;;5006466;28;20045;-85
2023/05/07 08:20:28;;;;;;;4.10;2.20;;;18.40;99.90;;;;;;5008428;28;20692;-84
2023/05/07 08:22:55;;;;;;;6.70;2.30;;;18.50;99.90;;;;;;5006007;28;20050;-83
2023/05/07 08:25:22;;;;;;;5.78;2.47;;;18.60;99.90;;;;;;5003843;28;20038;-83
2023/05/07 08:27:48;;;;;;;5.05;2.30;;;18.60;99.90;;;;;;4998735;28;20038;-83
2023/05/07 08:30:15;;;;;;;3.67;2.15;;;18.70;99.90;;;;;;4995763;28;20048;-85
2023/05/07 08:32:42;;;;;;;5.05;2.00;;;18.80;99.90;;;;;;5004062;28;20537;-84
2023/05/07 08:35:09;;;;;;;2.75;2.00;;;18.90;99.90;;;;;;5004675;28;20077;-82
2023/05/07 08:37:36;;;;;;;2.78;1.98;;;19.00;99.90;;;;;;5006573;28;20462;-85
2023/05/07 08:40:03;;;;;;;3.13;2.50;;;19.00;99.90;;;;;;4999939;28;20522;-84
2023/05/07 08:42:36;;;;;;;3.83;2.10;;;19.20;99.90;;;;;;4998696;28;20076;-85
2023/05/07 08:45:08;;;;;;;5.68;2.33;;;19.30;99.90;;;;;;4994687;28;20162;-85
2023/05/07 08:47:42;;;;;;;3.13;2.25;;;19.40;99.90;;;;;;5002541;28;20506;-84
2023/05/07 08:50:09;;;;;;;6.05;2.53;;;19.50;99.90;;;;;;4992831;28;20108;-85
2023/05/07 08:52:37;;;;;;;6.57;2.95;;;19.60;99.90;;;;;;5006862;28;20118;-85
2023/05/07 08:55:04;;;;;;;8.52;3.92;;;19.70;99.90;;;;;;4998907;28;20047;-84
2023/05/07 08:57:30;;;;;;;6.45;2.70;;;19.70;99.90;;;;;;4998850;28;20053;-84
2023/05/07 08:59:57;;;;;;;4.57;2.78;;;19.80;99.90;;;;;;4996173;28;20524;-85
2023/05/07 09:02:24;;;;;;;4.45;3.55;;;19.80;99.90;;;;;;5019283;28;20493;-85
2023/05/07 09:04:52;;;;;;;3.60;3.00;;;19.80;99.90;;;;;;5005859;28;20053;-85
2023/05/07 09:07:20;;;;;;;4.68;2.65;;;19.80;99.90;;;;;;5003691;28;20105;-85
2023/05/07 09:09:46;;;;;;;4.10;2.75;;;19.80;99.90;;;;;;5001990;28;20046;-85
2023/05/07 09:12:13;;;;;;;5.95;3.25;;;19.80;99.90;;;;;;4998771;28;20133;-85
2023/05/07 09:14:40;;;;;;;4.63;3.30;;;19.70;99.90;;;;;;4993117;28;20070;-84
2023/05/07 09:17:07;;;;;;;3.63;2.75;;;19.70;99.90;;;;;;5003970;28;20386;-83
2023/05/07 09:19:33;;;;;;;7.38;3.17;;;19.50;99.90;;;;;;5019770;28;20057;-84
2023/05/07 09:22:02;;;;;;;5.85;3.17;;;19.50;99.90;;;;;;5003285;28;20413;-85
2023/05/07 09:24:33;;;;;;;5.10;3.15;;;19.30;99.90;;;;;;5011902;28;20046;-84
2023/05/07 09:27:02;;;;;;;3.75;3.17;;;19.20;99.90;;;;;;4995516;28;20129;-84
2023/05/07 09:29:29;;;;;;;5.25;3.65;;;19.10;99.90;;;;;;5013341;28;20081;-84
2023/05/07 09:31:56;;;;;;;11.00;3.78;;;19.10;99.90;;;;;;5002953;28;20046;-83
2023/05/07 09:34:23;;;;;;;9.90;3.60;;;19.00;99.90;;;;;;5005794;28;20137;-84
2023/05/07 09:36:50;;;;;;;6.25;3.38;;;18.90;99.90;;;;;;5002063;28;20059;-83
2023/05/07 09:39:17;;;;;;;7.43;3.92;;;18.80;99.90;;;;;;4999217;28;20153;-84
2023/05/07 09:41:45;;;;;;;4.38;3.13;;;18.70;99.90;;;;;;4999791;28;20631;-84
2023/05/07 09:44:13;;;;;;;5.53;3.08;;;18.60;99.90;;;;;;4996689;28;20131;-84
2023/05/07 09:46:42;;;;;;;6.57;3.15;;;18.50;99.90;;;;;;5002701;28;20041;-85
2023/05/07 09:49:18;;;;;;;6.10;3.53;;;18.50;99.90;;;;;;5004117;28;20080;-84
2023/05/07 09:51:49;;;;;;;6.47;3.58;;;18.50;99.90;;;;;;5009471;28;20128;-85
2023/05/07 09:54:17;;;;;;;7.10;3.55;;;18.40;99.90;;;;;;4999943;28;20106;-85
2023/05/07 09:56:52;;;;;;;11.35;3.83;;;18.40;99.90;;;;;;5005737;28;20053;-84
2023/05/07 09:59:21;;;;;;;8.70;3.90;;;18.40;99.90;;;;;;4999220;28;20050;-85
2023/05/07 10:01:50;;;;;;;7.45;4.05;;;18.40;99.90;;;;;;5013534;28;20058;-84
2023/05/07 10:04:18;;;;;;;6.50;3.88;;;18.40;99.90;;;;;;5014622;28;20125;-84
2023/05/07 10:06:46;;;;;;;5.13;4.15;;;18.40;99.90;;;;;;5009430;28;20042;-84
2023/05/07 10:09:13;;;;;;;8.73;4.55;;;18.40;99.90;;;;;;5003459;28;20042;-85
2023/05/07 10:11:40;;;;;;;7.78;3.70;;;18.50;99.90;;;;;;5001544;28;20136;-85
2023/05/07 10:14:07;;;;;;;5.97;3.42;;;18.50;99.90;;;;;;5000269;28;20050;-85
2023/05/07 10:16:36;;;;;;;7.32;3.40;;;18.60;99.90;;;;;;5006556;28;20064;-84
2023/05/07 10:19:05;;;;;;;5.70;4.13;;;18.60;99.90;;;;;;5006852;28;20466;-86
2023/05/07 10:21:36;;;;;;;4.15;3.63;;;18.70;99.90;;;;;;5007496;28;20056;-84
2023/05/07 10:24:14;;;;;;;6.80;3.65;;;18.70;99.90;;;;;;5000454;28;20054;-84
2023/05/07 10:26:44;;;;;;;3.83;2.90;;;18.80;99.90;;;;;;5001907;28;20042;-84
2023/05/07 10:29:18;;;;;;;;;;;18.90;99.90;;;;;;4998026;28;20050;-85
2023/05/07 10:32:08;;;;;;;4.43;2.63;;;19.00;99.90;;;;;;4989946;28;20044;-85
2023/05/07 10:34:43;;;;;;;4.78;2.53;;;19.20;99.90;;;;;;4997371;28;20434;-84
2023/05/07 10:37:11;;;;;;;4.00;2.10;;;19.50;99.90;;;;;;5004242;28;20141;-84
2023/05/07 10:39:38;;;;;;;6.07;2.50;;;19.70;99.90;;;;;;5001319;28;20046;-85
2023/05/07 10:42:13;;;;;;;3.25;2.35;;;19.90;99.90;;;;;;5000928;28;20053;-85
2023/05/07 10:44:40;;;;;;;4.25;2.67;;;20.10;99.90;;;;;;5019979;28;20062;-86
2023/05/07 10:47:15;;;;;;;3.70;2.10;;;20.40;99.90;;;;;;5027697;28;20076;-85
2023/05/07 10:49:41;;;;;;;4.60;2.90;;;20.60;99.90;;;;;;5037922;28;20053;-85
2023/05/07 10:52:19;;;;;;;8.13;3.42;;;20.80;99.90;;;;;;5004355;28;20056;-85
2023/05/07 10:54:46;;;;;;;2.80;2.50;;;21.00;99.90;;;;;;5001749;28;20156;-85
2023/05/07 10:57:31;;;;;;;5.43;2.08;;;21.10;99.90;;;;;;5000373;28;20082;-86
2023/05/07 10:59:58;;;;;;;3.05;2.28;;;21.30;99.90;;;;;;5000936;28;20088;-85
2023/05/07 11:03:00;;;;;;;3.63;1.98;;;21.40;99.90;;;;;;5009876;28;20104;-85
2023/05/07 11:05:31;;;;;;;3.60;1.70;;;21.50;99.90;;;;;;5003159;28;20050;-84
2023/05/07 11:08:03;;;;;;;5.78;2.58;;;21.60;99.90;;;;;;5013047;28;20422;-83
2023/05/07 11:10:53;;;;;;;5.38;2.30;;;21.70;99.90;;;;;;4997722;28;20391;-84
2023/05/07 11:13:55;;;;;;;4.53;2.17;;;21.80;99.90;;;;;;4996345;28;20054;-84
2023/05/07 11:16:24;;;;;;;2.38;1.73;;;21.90;99.90;;;;;;4965544;28;20042;-86
2023/05/07 11:18:53;;;;;;;4.82;2.42;;;21.90;99.90;;;;;;4999776;28;20050;-85
2023/05/07 11:21:40;;;;;;;4.60;2.15;;;22.00;99.90;;;;;;5004404;28;20042;-84
2023/05/07 11:24:08;;;;;;;2.35;1.60;;;22.10;99.90;;;;;;5001660;28;20114;-83
2023/05/07 11:26:47;;;;;;;5.80;1.95;;;22.10;99.90;;;;;;5012176;28;20050;-84
2023/05/07 11:29:16;;;;;;;4.00;2.10;;;22.20;99.90;;;;;;4994697;28;20050;-84
2023/05/07 11:31:54;;;;;;;2.63;2.03;;;22.30;99.90;;;;;;5006222;28;20450;-85
2023/05/07 11:34:23;;;;;;;2.88;2.10;;;22.30;99.90;;;;;;4993632;28;20050;-85
2023/05/07 11:36:50;;;;;;;5.22;1.90;;;22.40;99.90;;;;;;5002915;28;20290;-85
2023/05/07 11:39:32;;;;;;;3.13;2.10;;;22.50;99.90;;;;;;4999076;28;20501;-85
2023/05/07 11:42:00;;;;;;;4.00;2.10;;;22.50;99.90;;;;;;4997673;28;20410;-85
2023/05/07 11:44:43;;;;;;;3.25;1.92;;;22.50;99.90;;;;;;4997306;28;20052;-85
2023/05/07 11:47:11;;;;;;;5.55;2.40;;;22.50;99.90;;;;;;5005902;28;20087;-85
2023/05/07 11:49:38;;;;;;;4.05;2.10;;;22.50;99.90;;;;;;5019619;28;20513;-84
2023/05/07 11:52:05;;;;;;;2.75;2.08;;;22.40;99.90;;;;;;5003124;28;20053;-85
2023/05/07 11:54:36;;;;;;;3.05;2.30;;;22.30;99.90;;;;;;5014136;28;20570;-85
2023/05/07 11:57:03;;;;;;;4.70;1.90;;;22.20;99.90;;;;;;4990835;28;20054;-85
2023/05/07 11:59:30;;;;;;;3.33;1.90;;;22.10;99.90;;;;;;5014039;28;20045;-85
2023/05/07 12:01:58;;;;;;;4.68;1.58;;;22.00;99.90;;;;;;5007132;28;20092;-84
2023/05/07 12:04:25;;;;;;;3.88;1.77;;;21.80;99.90;;;;;;4998837;28;20132;-85
2023/05/07 12:06:55;;;;;;;5.05;1.67;;;21.70;99.90;;;;;;5004177;28;20058;-84
2023/05/07 12:09:22;;;;;;;3.90;1.73;;;21.60;99.90;;;;;;4999770;28;20142;-85
2023/05/07 12:11:51;;;;;;;3.60;1.92;;;21.50;99.90;;;;;;4997482;28;20125;-85
2023/05/07 12:14:18;;;;;;;5.38;1.83;;;21.60;99.90;;;;;;4992611;28;20042;-83
2023/05/07 12:16:45;;;;;;;2.75;1.50;;;21.50;99.90;;;;;;5002334;28;20054;-83
2023/05/07 12:19:14;;;;;;;1.42;1.30;;;21.60;99.90;;;;;;5021885;23;20054;-76
2023/05/07 12:21:41;;;;;;;3.63;1.65;;;21.60;99.90;;;;;;5009004;28;20050;-77
2023/05/07 12:24:08;;;;;;;2.53;1.70;;;21.60;99.90;;;;;;5004658;28;20058;-76
2023/05/07 12:26:40;;;;;;;3.55;1.77;;;21.60;99.90;;;;;;5007359;28;20379;-77
2023/05/07 12:29:07;;;;;;;3.33;1.35;;;21.50;99.90;;;;;;5001772;28;20085;-76
2023/05/07 12:31:34;;;;;;;3.00;1.77;;;21.50;99.90;;;;;;5007434;28;20444;-76
2023/05/07 12:34:02;;;;;;;2.03;1.50;;;21.50;99.90;;;;;;5000205;28;20673;-77
2023/05/07 12:36:40;;;;;;;6.28;1.60;;;21.50;99.90;;;;;;5003753;28;20501;-76
2023/05/07 12:39:08;;;;;;;3.08;1.77;;;21.40;99.90;;;;;;5006122;28;20069;-76
2023/05/07 12:41:55;;;;;;;3.10;1.60;;;21.40;99.90;;;;;;5007025;28;20136;-77
2023/05/07 12:44:28;;;;;;;2.85;1.73;;;21.40;99.90;;;;;;4969023;28;20045;-77
2023/05/07 12:46:55;;;;;;;1.90;1.55;;;21.40;99.90;;;;;;5000304;28;20408;-76
2023/05/07 12:49:24;;;;;;;3.58;1.90;;;21.30;99.90;;;;;;5002242;28;20069;-77
2023/05/07 12:51:51;;;;;;;3.25;1.70;;;21.30;99.90;;;;;;5008813;28;20137;-77
2023/05/07 12:54:28;;;;;;;3.70;1.70;;;21.30;99.90;;;;;;4999483;28;20053;-76